sensor_id;sensor_type;location;lat;lon;timestamp;P1;durP1;ratioP1;P2;durP2;ratioP2
12556;SDS011;6344;49.932;8.308;2023-03-14T00:01:43;2.83;;;1.83;;
12556;SDS011;6344;49.932;8.308;2023-03-14T00:04:09;2.73;;;1.73;;
12556;SDS011;6344;49.932;8.308;2023-03-14T00:06:37;2.37;;;1.80;;
12556;SDS011;6344;49.932;8.308;2023-03-14T00:09:04;2.03;;;1.70;;
12556;SDS011;6344;49.932;8.308;2023-03-14T00:11:31;5.03;;;2.07;;
12556;SDS011;6344;49.932;8.308;2023-03-14T00:13:57;3.37;;;1.93;;
12556;SDS011;6344;49.932;8.308;2023-03-14T00:16:25;4.33;;;2.00;;
12556;SDS011;6344;49.932;8.308;2023-03-14T00:18:52;3.40;;;1.77;;
12556;SDS011;6344;49.932;8.308;2023-03-14T00:21:18;1.60;;;1.50;;
12556;SDS011;6344;49.932;8.308;2023-03-14T00:23:46;1.90;;;1.53;;
12556;SDS011;6344;49.932;8.308;2023-03-14T00:26:13;4.20;;;1.60;;
12556;SDS011;6344;49.932;8.308;2023-03-14T00:28:42;2.17;;;1.57;;
12556;SDS011;6344;49.932;8.308;2023-03-14T00:31:11;2.80;;;2.00;;
12556;SDS011;6344;49.932;8.308;2023-03-14T00:33:38;2.17;;;1.80;;
12556;SDS011;6344;49.932;8.308;2023-03-14T00:36:06;5.30;;;1.90;;
12556;SDS011;6344;49.932;8.308;2023-03-14T00:38:35;3.43;;;2.10;;
12556;SDS011;6344;49.932;8.308;2023-03-14T00:41:05;7.60;;;2.30;;
12556;SDS011;6344;49.932;8.308;2023-03-14T00:43:33;3.73;;;1.77;;
12556;SDS011;6344;49.932;8.308;2023-03-14T00:46:00;5.07;;;2.77;;
12556;SDS011;6344;49.932;8.308;2023-03-14T00:48:27;3.40;;;1.50;;
12556;SDS011;6344;49.932;8.308;2023-03-14T00:50:54;2.80;;;1.30;;
12556;SDS011;6344;49.932;8.308;2023-03-14T00:53:20;6.03;;;1.90;;
12556;SDS011;6344;49.932;8.308;2023-03-14T00:55:47;5.40;;;1.80;;
12556;SDS011;6344;49.932;8.308;2023-03-14T00:58:16;5.43;;;3.30;;
12556;SDS011;6344;49.932;8.308;2023-03-14T01:00:43;3.63;;;1.90;;
12556;SDS011;6344;49.932;8.308;2023-03-14T01:03:10;3.60;;;1.77;;
12556;SDS011;6344;49.932;8.308;2023-03-14T01:05:38;4.37;;;2.30;;
12556;SDS011;6344;49.932;8.308;2023-03-14T01:08:06;4.53;;;2.10;;
12556;SDS011;6344;49.932;8.308;2023-03-14T01:10:33;3.03;;;1.90;;
12556;SDS011;6344;49.932;8.308;2023-03-14T01:13:00;5.33;;;1.70;;
12556;SDS011;6344;49.932;8.308;2023-03-14T01:15:28;3.23;;;1.63;;
12556;SDS011;6344;49.932;8.308;2023-03-14T01:17:55;5.30;;;2.40;;
12556;SDS011;6344;49.932;8.308;2023-03-14T01:20:21;2.70;;;1.53;;
12556;SDS011;6344;49.932;8.308;2023-03-14T01:22:48;5.40;;;1.97;;
12556;SDS011;6344;49.932;8.308;2023-03-14T01:25:15;2.20;;;1.83;;
12556;SDS011;6344;49.932;8.308;2023-03-14T01:27:43;5.77;;;2.40;;
12556;SDS011;6344;49.932;8.308;2023-03-14T01:30:11;5.10;;;2.20;;
12556;SDS011;6344;49.932;8.308;2023-03-14T01:36:11;4.57;;;1.97;;
12556;SDS011;6344;49.932;8.308;2023-03-14T01:38:39;2.63;;;1.60;;
12556;SDS011;6344;49.932;8.308;2023-03-14T01:41:06;4.83;;;1.97;;
12556;SDS011;6344;49.932;8.308;2023-03-14T01:43:34;4.60;;;2.23;;
12556;SDS011;6344;49.932;8.308;2023-03-14T01:48:52;5.30;;;1.80;;
12556;SDS011;6344;49.932;8.308;2023-03-14T01:51:30;2.27;;;1.93;;
12556;SDS011;6344;49.932;8.308;2023-03-14T01:54:06;3.00;;;1.87;;
12556;SDS011;6344;49.932;8.308;2023-03-14T01:56:37;3.83;;;1.90;;
12556;SDS011;6344;49.932;8.308;2023-03-14T01:59:07;4.33;;;2.17;;
12556;SDS011;6344;49.932;8.308;2023-03-14T02:01:36;4.63;;;2.43;;
12556;SDS011;6344;49.932;8.308;2023-03-14T02:04:04;10.13;;;2.37;;
12556;SDS011;6344;49.932;8.308;2023-03-14T02:06:36;4.33;;;2.07;;
12556;SDS011;6344;49.932;8.308;2023-03-14T02:09:08;3.10;;;1.77;;
12556;SDS011;6344;49.932;8.308;2023-03-14T02:11:34;2.93;;;1.87;;
12556;SDS011;6344;49.932;8.308;2023-03-14T02:14:01;3.00;;;1.53;;
12556;SDS011;6344;49.932;8.308;2023-03-14T02:16:29;3.90;;;2.10;;
12556;SDS011;6344;49.932;8.308;2023-03-14T02:18:56;4.47;;;2.17;;
12556;SDS011;6344;49.932;8.308;2023-03-14T02:21:23;2.93;;;1.93;;
12556;SDS011;6344;49.932;8.308;2023-03-14T02:24:02;3.43;;;1.63;;
12556;SDS011;6344;49.932;8.308;2023-03-14T02:26:34;4.10;;;1.80;;
12556;SDS011;6344;49.932;8.308;2023-03-14T02:29:06;1.93;;;1.43;;
12556;SDS011;6344;49.932;8.308;2023-03-14T02:31:32;4.80;;;2.07;;
12556;SDS011;6344;49.932;8.308;2023-03-14T02:34:00;2.13;;;1.93;;
12556;SDS011;6344;49.932;8.308;2023-03-14T02:36:27;3.70;;;2.43;;
12556;SDS011;6344;49.932;8.308;2023-03-14T02:38:58;5.10;;;2.03;;
12556;SDS011;6344;49.932;8.308;2023-03-14T02:41:32;4.87;;;2.60;;
12556;SDS011;6344;49.932;8.308;2023-03-14T02:43:59;4.30;;;2.13;;
12556;SDS011;6344;49.932;8.308;2023-03-14T02:46:27;3.20;;;1.90;;
12556;SDS011;6344;49.932;8.308;2023-03-14T02:48:55;5.20;;;2.37;;
12556;SDS011;6344;49.932;8.308;2023-03-14T02:51:27;5.00;;;2.10;;
12556;SDS011;6344;49.932;8.308;2023-03-14T02:53:55;4.20;;;1.97;;
12556;SDS011;6344;49.932;8.308;2023-03-14T02:56:22;2.67;;;2.00;;
12556;SDS011;6344;49.932;8.308;2023-03-14T02:58:49;3.77;;;2.93;;
12556;SDS011;6344;49.932;8.308;2023-03-14T03:01:16;5.97;;;2.10;;
12556;SDS011;6344;49.932;8.308;2023-03-14T03:03:44;5.00;;;1.90;;
12556;SDS011;6344;49.932;8.308;2023-03-14T03:06:10;3.30;;;1.80;;
12556;SDS011;6344;49.932;8.308;2023-03-14T03:08:37;5.07;;;2.13;;
12556;SDS011;6344;49.932;8.308;2023-03-14T03:11:04;6.20;;;2.17;;
12556;SDS011;6344;49.932;8.308;2023-03-14T03:13:31;3.70;;;2.20;;
12556;SDS011;6344;49.932;8.308;2023-03-14T03:15:58;2.33;;;1.60;;
12556;SDS011;6344;49.932;8.308;2023-03-14T03:18:24;3.30;;;1.50;;
12556;SDS011;6344;49.932;8.308;2023-03-14T03:20:52;4.80;;;3.10;;
12556;SDS011;6344;49.932;8.308;2023-03-14T03:23:19;3.63;;;2.20;;
12556;SDS011;6344;49.932;8.308;2023-03-14T03:25:49;2.03;;;1.43;;
12556;SDS011;6344;49.932;8.308;2023-03-14T03:28:16;5.57;;;2.83;;
12556;SDS011;6344;49.932;8.308;2023-03-14T03:30:44;2.63;;;1.80;;
12556;SDS011;6344;49.932;8.308;2023-03-14T03:33:11;2.90;;;1.80;;
12556;SDS011;6344;49.932;8.308;2023-03-14T03:35:42;4.70;;;1.97;;
12556;SDS011;6344;49.932;8.308;2023-03-14T03:38:11;4.40;;;2.20;;
12556;SDS011;6344;49.932;8.308;2023-03-14T03:40:38;2.77;;;1.70;;
12556;SDS011;6344;49.932;8.308;2023-03-14T03:43:04;4.00;;;1.70;;
12556;SDS011;6344;49.932;8.308;2023-03-14T03:45:31;3.93;;;2.03;;
12556;SDS011;6344;49.932;8.308;2023-03-14T03:47:57;2.00;;;1.73;;
12556;SDS011;6344;49.932;8.308;2023-03-14T03:50:24;4.83;;;2.10;;
12556;SDS011;6344;49.932;8.308;2023-03-14T03:52:51;2.73;;;2.03;;
12556;SDS011;6344;49.932;8.308;2023-03-14T03:55:19;4.77;;;2.27;;
12556;SDS011;6344;49.932;8.308;2023-03-14T03:57:45;4.40;;;2.50;;
12556;SDS011;6344;49.932;8.308;2023-03-14T04:00:12;3.20;;;2.00;;
12556;SDS011;6344;49.932;8.308;2023-03-14T04:02:39;4.70;;;2.30;;
12556;SDS011;6344;49.932;8.308;2023-03-14T04:05:06;3.40;;;1.50;;
12556;SDS011;6344;49.932;8.308;2023-03-14T04:07:33;3.20;;;2.40;;
12556;SDS011;6344;49.932;8.308;2023-03-14T04:10:00;4.43;;;1.80;;
12556;SDS011;6344;49.932;8.308;2023-03-14T04:12:27;7.13;;;2.07;;
12556;SDS011;6344;49.932;8.308;2023-03-14T04:14:54;3.03;;;1.90;;
12556;SDS011;6344;49.932;8.308;2023-03-14T04:17:21;3.30;;;1.97;;
12556;SDS011;6344;49.932;8.308;2023-03-14T04:19:47;2.40;;;1.50;;
12556;SDS011;6344;49.932;8.308;2023-03-14T04:22:16;1.70;;;1.60;;
12556;SDS011;6344;49.932;8.308;2023-03-14T04:24:42;6.33;;;2.00;;
12556;SDS011;6344;49.932;8.308;2023-03-14T04:27:09;4.10;;;1.70;;
12556;SDS011;6344;49.932;8.308;2023-03-14T04:29:37;3.47;;;1.40;;
12556;SDS011;6344;49.932;8.308;2023-03-14T04:32:04;3.03;;;1.90;;
12556;SDS011;6344;49.932;8.308;2023-03-14T04:34:30;2.67;;;1.30;;
12556;SDS011;6344;49.932;8.308;2023-03-14T04:36:57;5.83;;;1.70;;
12556;SDS011;6344;49.932;8.308;2023-03-14T04:39:24;5.50;;;1.97;;
12556;SDS011;6344;49.932;8.308;2023-03-14T04:41:50;2.00;;;1.40;;
12556;SDS011;6344;49.932;8.308;2023-03-14T04:44:17;2.30;;;1.87;;
12556;SDS011;6344;49.932;8.308;2023-03-14T04:46:45;4.70;;;1.47;;
12556;SDS011;6344;49.932;8.308;2023-03-14T04:49:12;5.80;;;1.57;;
12556;SDS011;6344;49.932;8.308;2023-03-14T04:51:38;3.33;;;1.80;;
12556;SDS011;6344;49.932;8.308;2023-03-14T04:54:05;2.80;;;1.50;;
12556;SDS011;6344;49.932;8.308;2023-03-14T04:56:33;1.97;;;1.20;;
12556;SDS011;6344;49.932;8.308;2023-03-14T04:58:59;4.50;;;1.67;;
12556;SDS011;6344;49.932;8.308;2023-03-14T05:01:26;2.37;;;1.30;;
12556;SDS011;6344;49.932;8.308;2023-03-14T05:03:54;3.20;;;1.60;;
12556;SDS011;6344;49.932;8.308;2023-03-14T05:06:20;2.40;;;1.40;;
12556;SDS011;6344;49.932;8.308;2023-03-14T05:08:47;3.40;;;1.63;;
12556;SDS011;6344;49.932;8.308;2023-03-14T05:11:14;3.40;;;1.90;;
12556;SDS011;6344;49.932;8.308;2023-03-14T05:13:40;4.50;;;1.80;;
12556;SDS011;6344;49.932;8.308;2023-03-14T05:16:08;3.30;;;1.77;;
12556;SDS011;6344;49.932;8.308;2023-03-14T05:18:36;2.27;;;1.83;;
12556;SDS011;6344;49.932;8.308;2023-03-14T05:21:04;2.13;;;1.83;;
12556;SDS011;6344;49.932;8.308;2023-03-14T05:23:31;1.93;;;1.33;;
12556;SDS011;6344;49.932;8.308;2023-03-14T05:25:58;7.10;;;3.10;;
12556;SDS011;6344;49.932;8.308;2023-03-14T05:28:24;3.00;;;1.70;;
12556;SDS011;6344;49.932;8.308;2023-03-14T05:30:51;2.13;;;1.30;;
12556;SDS011;6344;49.932;8.308;2023-03-14T05:33:18;2.03;;;1.30;;
12556;SDS011;6344;49.932;8.308;2023-03-14T05:35:45;2.43;;;1.30;;
12556;SDS011;6344;49.932;8.308;2023-03-14T05:38:12;1.70;;;1.33;;
12556;SDS011;6344;49.932;8.308;2023-03-14T05:40:39;3.13;;;1.30;;
12556;SDS011;6344;49.932;8.308;2023-03-14T05:43:06;1.80;;;1.30;;
12556;SDS011;6344;49.932;8.308;2023-03-14T05:45:33;2.60;;;1.60;;
12556;SDS011;6344;49.932;8.308;2023-03-14T05:48:01;4.60;;;1.93;;
12556;SDS011;6344;49.932;8.308;2023-03-14T05:50:27;2.33;;;1.30;;
12556;SDS011;6344;49.932;8.308;2023-03-14T05:52:54;2.43;;;1.30;;
12556;SDS011;6344;49.932;8.308;2023-03-14T05:55:22;2.47;;;1.47;;
12556;SDS011;6344;49.932;8.308;2023-03-14T05:57:48;1.87;;;1.60;;
12556;SDS011;6344;49.932;8.308;2023-03-14T06:00:15;2.23;;;1.50;;
12556;SDS011;6344;49.932;8.308;2023-03-14T06:02:43;3.20;;;1.70;;
12556;SDS011;6344;49.932;8.308;2023-03-14T06:05:09;2.80;;;1.23;;
12556;SDS011;6344;49.932;8.308;2023-03-14T06:07:36;2.90;;;1.40;;
12556;SDS011;6344;49.932;8.308;2023-03-14T06:10:03;3.30;;;1.80;;
12556;SDS011;6344;49.932;8.308;2023-03-14T06:12:32;1.40;;;1.30;;
12556;SDS011;6344;49.932;8.308;2023-03-14T06:14:58;5.17;;;1.70;;
12556;SDS011;6344;49.932;8.308;2023-03-14T06:17:25;5.37;;;1.30;;
12556;SDS011;6344;49.932;8.308;2023-03-14T06:19:52;2.37;;;1.77;;
12556;SDS011;6344;49.932;8.308;2023-03-14T06:22:18;2.63;;;1.70;;
12556;SDS011;6344;49.932;8.308;2023-03-14T06:24:45;3.20;;;1.60;;
12556;SDS011;6344;49.932;8.308;2023-03-14T06:27:11;2.20;;;1.20;;
12556;SDS011;6344;49.932;8.308;2023-03-14T06:29:39;2.63;;;1.97;;
12556;SDS011;6344;49.932;8.308;2023-03-14T06:32:06;2.47;;;1.23;;
12556;SDS011;6344;49.932;8.308;2023-03-14T06:34:33;2.07;;;1.17;;
12556;SDS011;6344;49.932;8.308;2023-03-14T06:36:59;1.60;;;1.50;;
12556;SDS011;6344;49.932;8.308;2023-03-14T06:39:26;2.27;;;1.27;;
12556;SDS011;6344;49.932;8.308;2023-03-14T06:41:53;2.63;;;1.50;;
12556;SDS011;6344;49.932;8.308;2023-03-14T06:44:19;1.50;;;1.23;;
12556;SDS011;6344;49.932;8.308;2023-03-14T06:46:47;2.30;;;1.30;;
12556;SDS011;6344;49.932;8.308;2023-03-14T06:49:14;2.47;;;1.40;;
12556;SDS011;6344;49.932;8.308;2023-03-14T06:51:40;2.60;;;1.50;;
12556;SDS011;6344;49.932;8.308;2023-03-14T06:54:07;2.40;;;1.63;;
12556;SDS011;6344;49.932;8.308;2023-03-14T06:56:34;1.50;;;1.40;;
12556;SDS011;6344;49.932;8.308;2023-03-14T06:59:00;1.00;;;0.90;;
12556;SDS011;6344;49.932;8.308;2023-03-14T07:01:27;4.40;;;1.73;;
12556;SDS011;6344;49.932;8.308;2023-03-14T07:03:58;1.77;;;1.03;;
12556;SDS011;6344;49.932;8.308;2023-03-14T07:06:25;2.07;;;1.10;;
12556;SDS011;6344;49.932;8.308;2023-03-14T07:08:54;1.33;;;1.20;;
12556;SDS011;6344;49.932;8.308;2023-03-14T07:11:21;2.13;;;1.20;;
12556;SDS011;6344;49.932;8.308;2023-03-14T07:13:47;4.93;;;1.80;;
12556;SDS011;6344;49.932;8.308;2023-03-14T07:16:14;1.77;;;1.47;;
12556;SDS011;6344;49.932;8.308;2023-03-14T07:18:41;2.07;;;1.70;;
12556;SDS011;6344;49.932;8.308;2023-03-14T07:21:09;1.30;;;0.90;;
12556;SDS011;6344;49.932;8.308;2023-03-14T07:23:36;6.13;;;1.63;;
12556;SDS011;6344;49.932;8.308;2023-03-14T07:26:02;2.27;;;1.03;;
12556;SDS011;6344;49.932;8.308;2023-03-14T07:28:29;2.33;;;1.10;;
12556;SDS011;6344;49.932;8.308;2023-03-14T07:30:56;2.03;;;1.40;;
12556;SDS011;6344;49.932;8.308;2023-03-14T07:33:22;2.83;;;1.23;;
12556;SDS011;6344;49.932;8.308;2023-03-14T07:35:49;2.47;;;1.30;;
12556;SDS011;6344;49.932;8.308;2023-03-14T07:38:17;2.87;;;1.47;;
12556;SDS011;6344;49.932;8.308;2023-03-14T07:40:44;1.63;;;1.00;;
12556;SDS011;6344;49.932;8.308;2023-03-14T07:43:10;5.83;;;1.73;;
12556;SDS011;6344;49.932;8.308;2023-03-14T07:45:37;4.50;;;1.57;;
12556;SDS011;6344;49.932;8.308;2023-03-14T07:48:04;2.27;;;1.83;;
12556;SDS011;6344;49.932;8.308;2023-03-14T07:50:30;4.07;;;2.07;;
12556;SDS011;6344;49.932;8.308;2023-03-14T07:52:57;3.13;;;1.43;;
12556;SDS011;6344;49.932;8.308;2023-03-14T07:55:25;4.00;;;1.40;;
12556;SDS011;6344;49.932;8.308;2023-03-14T07:57:52;1.10;;;1.00;;
12556;SDS011;6344;49.932;8.308;2023-03-14T08:00:19;1.70;;;1.07;;
12556;SDS011;6344;49.932;8.308;2023-03-14T08:02:46;2.70;;;1.43;;
12556;SDS011;6344;49.932;8.308;2023-03-14T08:05:12;9.10;;;1.87;;
12556;SDS011;6344;49.932;8.308;2023-03-14T08:07:39;1.40;;;1.27;;
12556;SDS011;6344;49.932;8.308;2023-03-14T08:10:06;2.00;;;1.30;;
12556;SDS011;6344;49.932;8.308;2023-03-14T08:12:36;1.90;;;1.50;;
12556;SDS011;6344;49.932;8.308;2023-03-14T08:15:02;2.80;;;1.40;;
12556;SDS011;6344;49.932;8.308;2023-03-14T08:17:30;2.90;;;1.40;;
12556;SDS011;6344;49.932;8.308;2023-03-14T08:19:56;1.70;;;1.33;;
12556;SDS011;6344;49.932;8.308;2023-03-14T08:22:23;1.60;;;1.50;;
12556;SDS011;6344;49.932;8.308;2023-03-14T08:24:49;2.73;;;2.13;;
12556;SDS011;6344;49.932;8.308;2023-03-14T08:27:16;2.27;;;1.80;;
12556;SDS011;6344;49.932;8.308;2023-03-14T08:29:44;2.23;;;1.80;;
12556;SDS011;6344;49.932;8.308;2023-03-14T08:32:10;1.80;;;1.60;;
12556;SDS011;6344;49.932;8.308;2023-03-14T08:34:37;1.73;;;1.63;;
12556;SDS011;6344;49.932;8.308;2023-03-14T08:37:04;3.00;;;2.10;;
12556;SDS011;6344;49.932;8.308;2023-03-14T08:39:31;2.30;;;1.60;;
12556;SDS011;6344;49.932;8.308;2023-03-14T08:41:58;1.40;;;1.20;;
12556;SDS011;6344;49.932;8.308;2023-03-14T08:44:24;3.50;;;1.77;;
12556;SDS011;6344;49.932;8.308;2023-03-14T08:46:52;1.90;;;1.67;;
12556;SDS011;6344;49.932;8.308;2023-03-14T08:49:19;2.33;;;1.40;;
12556;SDS011;6344;49.932;8.308;2023-03-14T08:51:45;1.90;;;1.37;;
12556;SDS011;6344;49.932;8.308;2023-03-14T08:54:12;2.87;;;1.50;;
12556;SDS011;6344;49.932;8.308;2023-03-14T08:56:38;2.10;;;1.90;;
12556;SDS011;6344;49.932;8.308;2023-03-14T08:59:05;1.43;;;1.27;;
12556;SDS011;6344;49.932;8.308;2023-03-14T09:01:33;2.70;;;1.77;;
12556;SDS011;6344;49.932;8.308;2023-03-14T09:04:01;1.50;;;1.30;;
12556;SDS011;6344;49.932;8.308;2023-03-14T09:06:27;3.00;;;1.50;;
12556;SDS011;6344;49.932;8.308;2023-03-14T09:08:54;1.80;;;1.70;;
12556;SDS011;6344;49.932;8.308;2023-03-14T09:11:21;2.30;;;1.60;;
12556;SDS011;6344;49.932;8.308;2023-03-14T09:13:47;1.67;;;1.57;;
12556;SDS011;6344;49.932;8.308;2023-03-14T09:16:14;2.03;;;1.40;;
12556;SDS011;6344;49.932;8.308;2023-03-14T09:18:41;2.17;;;1.97;;
12556;SDS011;6344;49.932;8.308;2023-03-14T09:21:09;1.90;;;1.70;;
12556;SDS011;6344;49.932;8.308;2023-03-14T09:23:36;2.13;;;1.47;;
12556;SDS011;6344;49.932;8.308;2023-03-14T09:26:02;3.33;;;2.20;;
12556;SDS011;6344;49.932;8.308;2023-03-14T09:28:30;1.80;;;1.70;;
12556;SDS011;6344;49.932;8.308;2023-03-14T09:30:56;3.63;;;1.30;;
12556;SDS011;6344;49.932;8.308;2023-03-14T09:33:23;1.80;;;1.53;;
12556;SDS011;6344;49.932;8.308;2023-03-14T09:35:50;1.53;;;1.43;;
12556;SDS011;6344;49.932;8.308;2023-03-14T09:38:18;1.70;;;1.60;;
12556;SDS011;6344;49.932;8.308;2023-03-14T09:40:46;2.80;;;1.53;;
12556;SDS011;6344;49.932;8.308;2023-03-14T09:43:14;1.60;;;1.50;;
12556;SDS011;6344;49.932;8.308;2023-03-14T09:45:41;1.93;;;1.53;;
12556;SDS011;6344;49.932;8.308;2023-03-14T09:48:12;1.60;;;1.50;;
12556;SDS011;6344;49.932;8.308;2023-03-14T09:50:42;2.20;;;2.00;;
12556;SDS011;6344;49.932;8.308;2023-03-14T09:53:11;2.10;;;1.90;;
12556;SDS011;6344;49.932;8.308;2023-03-14T09:55:42;1.90;;;1.80;;
12556;SDS011;6344;49.932;8.308;2023-03-14T09:58:11;1.90;;;1.80;;
12556;SDS011;6344;49.932;8.308;2023-03-14T10:00:40;1.53;;;1.43;;
12556;SDS011;6344;49.932;8.308;2023-03-14T10:03:18;1.60;;;1.40;;
12556;SDS011;6344;49.932;8.308;2023-03-14T10:05:48;1.80;;;1.70;;
12556;SDS011;6344;49.932;8.308;2023-03-14T10:08:15;1.90;;;1.70;;
12556;SDS011;6344;49.932;8.308;2023-03-14T10:10:43;1.67;;;1.57;;
12556;SDS011;6344;49.932;8.308;2023-03-14T10:13:13;2.60;;;1.93;;
12556;SDS011;6344;49.932;8.308;2023-03-14T10:15:42;1.70;;;1.60;;
12556;SDS011;6344;49.932;8.308;2023-03-14T10:18:14;1.80;;;1.70;;
12556;SDS011;6344;49.932;8.308;2023-03-14T10:20:42;1.67;;;1.57;;
12556;SDS011;6344;49.932;8.308;2023-03-14T10:23:22;2.10;;;2.00;;
12556;SDS011;6344;49.932;8.308;2023-03-14T10:26:02;1.97;;;1.70;;
12556;SDS011;6344;49.932;8.308;2023-03-14T10:28:33;2.37;;;1.90;;
12556;SDS011;6344;49.932;8.308;2023-03-14T10:31:03;2.20;;;2.10;;
12556;SDS011;6344;49.932;8.308;2023-03-14T10:33:30;1.90;;;1.80;;
12556;SDS011;6344;49.932;8.308;2023-03-14T10:35:59;2.07;;;1.97;;
12556;SDS011;6344;49.932;8.308;2023-03-14T10:38:28;2.63;;;2.43;;
12556;SDS011;6344;49.932;8.308;2023-03-14T10:40:55;2.20;;;2.10;;
12556;SDS011;6344;49.932;8.308;2023-03-14T10:43:25;1.80;;;1.70;;
12556;SDS011;6344;49.932;8.308;2023-03-14T10:45:54;2.43;;;2.20;;
12556;SDS011;6344;49.932;8.308;2023-03-14T10:48:24;1.73;;;1.63;;
12556;SDS011;6344;49.932;8.308;2023-03-14T10:50:57;1.73;;;1.63;;
12556;SDS011;6344;49.932;8.308;2023-03-14T10:53:32;2.03;;;1.93;;
12556;SDS011;6344;49.932;8.308;2023-03-14T10:56:02;2.00;;;1.90;;
12556;SDS011;6344;49.932;8.308;2023-03-14T10:58:31;1.77;;;1.63;;
12556;SDS011;6344;49.932;8.308;2023-03-14T11:01:03;2.00;;;1.90;;
12556;SDS011;6344;49.932;8.308;2023-03-14T11:03:37;2.27;;;1.60;;
12556;SDS011;6344;49.932;8.308;2023-03-14T11:06:09;1.53;;;1.43;;
12556;SDS011;6344;49.932;8.308;2023-03-14T11:08:42;1.80;;;1.70;;
12556;SDS011;6344;49.932;8.308;2023-03-14T11:11:16;1.80;;;1.70;;
12556;SDS011;6344;49.932;8.308;2023-03-14T11:13:50;1.50;;;1.40;;
12556;SDS011;6344;49.932;8.308;2023-03-14T11:16:27;5.00;;;1.37;;
12556;SDS011;6344;49.932;8.308;2023-03-14T11:19:03;1.40;;;1.30;;
12556;SDS011;6344;49.932;8.308;2023-03-14T11:21:54;1.27;;;1.17;;
12556;SDS011;6344;49.932;8.308;2023-03-14T11:24:33;1.37;;;1.27;;
12556;SDS011;6344;49.932;8.308;2023-03-14T11:27:16;1.70;;;1.10;;
12556;SDS011;6344;49.932;8.308;2023-03-14T11:29:57;1.50;;;1.40;;
12556;SDS011;6344;49.932;8.308;2023-03-14T11:32:37;2.30;;;1.63;;
12556;SDS011;6344;49.932;8.308;2023-03-14T11:35:12;1.10;;;1.00;;
12556;SDS011;6344;49.932;8.308;2023-03-14T11:37:46;1.70;;;1.50;;
12556;SDS011;6344;49.932;8.308;2023-03-14T11:40:16;1.80;;;1.20;;
12556;SDS011;6344;49.932;8.308;2023-03-14T11:42:45;1.97;;;1.10;;
12556;SDS011;6344;49.932;8.308;2023-03-14T11:45:18;2.73;;;1.40;;
12556;SDS011;6344;49.932;8.308;2023-03-14T11:47:49;1.50;;;1.40;;
12556;SDS011;6344;49.932;8.308;2023-03-14T11:50:22;1.00;;;0.80;;
12556;SDS011;6344;49.932;8.308;2023-03-14T11:52:53;1.00;;;0.80;;
12556;SDS011;6344;49.932;8.308;2023-03-14T11:55:24;1.00;;;0.80;;
12556;SDS011;6344;49.932;8.308;2023-03-14T11:57:53;1.97;;;0.80;;
12556;SDS011;6344;49.932;8.308;2023-03-14T12:00:27;1.00;;;0.77;;
12556;SDS011;6344;49.932;8.308;2023-03-14T12:02:56;1.00;;;0.70;;
12556;SDS011;6344;49.932;8.308;2023-03-14T12:05:50;1.10;;;0.73;;
12556;SDS011;6344;49.932;8.308;2023-03-14T12:11:15;1.10;;;0.80;;
12556;SDS011;6344;49.932;8.308;2023-03-14T12:13:46;1.00;;;0.80;;
12556;SDS011;6344;49.932;8.308;2023-03-14T12:16:32;1.00;;;0.70;;
12556;SDS011;6344;49.932;8.308;2023-03-14T12:19:13;2.90;;;0.80;;
12556;SDS011;6344;49.932;8.308;2023-03-14T12:21:47;1.00;;;0.80;;
12556;SDS011;6344;49.932;8.308;2023-03-14T12:24:19;1.00;;;0.73;;
12556;SDS011;6344;49.932;8.308;2023-03-14T12:26:51;1.10;;;0.83;;
12556;SDS011;6344;49.932;8.308;2023-03-14T12:29:19;1.10;;;0.90;;
12556;SDS011;6344;49.932;8.308;2023-03-14T12:31:48;1.00;;;0.80;;
12556;SDS011;6344;49.932;8.308;2023-03-14T12:34:25;1.00;;;0.80;;
12556;SDS011;6344;49.932;8.308;2023-03-14T12:36:56;1.10;;;0.80;;
12556;SDS011;6344;49.932;8.308;2023-03-14T12:39:35;1.00;;;0.80;;
12556;SDS011;6344;49.932;8.308;2023-03-14T12:42:10;1.00;;;0.80;;
12556;SDS011;6344;49.932;8.308;2023-03-14T12:44:39;1.17;;;0.80;;
12556;SDS011;6344;49.932;8.308;2023-03-14T12:50:14;1.00;;;0.80;;
12556;SDS011;6344;49.932;8.308;2023-03-14T12:52:49;1.00;;;0.70;;
12556;SDS011;6344;49.932;8.308;2023-03-14T12:55:29;1.20;;;0.80;;
12556;SDS011;6344;49.932;8.308;2023-03-14T12:58:03;1.00;;;0.80;;
12556;SDS011;6344;49.932;8.308;2023-03-14T13:00:35;1.20;;;0.90;;
12556;SDS011;6344;49.932;8.308;2023-03-14T13:03:13;1.00;;;0.90;;
12556;SDS011;6344;49.932;8.308;2023-03-14T13:08:35;1.10;;;0.80;;
12556;SDS011;6344;49.932;8.308;2023-03-14T13:11:05;1.00;;;0.80;;
12556;SDS011;6344;49.932;8.308;2023-03-14T13:13:35;1.10;;;0.90;;
12556;SDS011;6344;49.932;8.308;2023-03-14T13:16:09;1.60;;;1.00;;
12556;SDS011;6344;49.932;8.308;2023-03-14T13:18:41;1.00;;;0.80;;
12556;SDS011;6344;49.932;8.308;2023-03-14T13:21:11;1.10;;;0.90;;
12556;SDS011;6344;49.932;8.308;2023-03-14T13:23:41;1.00;;;0.80;;
12556;SDS011;6344;49.932;8.308;2023-03-14T13:26:22;1.00;;;0.80;;
12556;SDS011;6344;49.932;8.308;2023-03-14T13:28:51;1.20;;;1.00;;
12556;SDS011;6344;49.932;8.308;2023-03-14T13:31:19;1.20;;;1.00;;
12556;SDS011;6344;49.932;8.308;2023-03-14T13:33:56;1.30;;;1.10;;
12556;SDS011;6344;49.932;8.308;2023-03-14T13:36:28;2.03;;;0.90;;
12556;SDS011;6344;49.932;8.308;2023-03-14T13:38:55;1.20;;;1.10;;
12556;SDS011;6344;49.932;8.308;2023-03-14T13:41:23;1.13;;;1.03;;
12556;SDS011;6344;49.932;8.308;2023-03-14T13:43:50;1.30;;;1.17;;
12556;SDS011;6344;49.932;8.308;2023-03-14T13:46:19;1.30;;;1.20;;
12556;SDS011;6344;49.932;8.308;2023-03-14T13:48:48;1.30;;;1.20;;
12556;SDS011;6344;49.932;8.308;2023-03-14T13:51:16;1.47;;;1.07;;
12556;SDS011;6344;49.932;8.308;2023-03-14T13:53:47;1.50;;;1.40;;
12556;SDS011;6344;49.932;8.308;2023-03-14T13:56:15;1.57;;;1.47;;
12556;SDS011;6344;49.932;8.308;2023-03-14T13:58:44;3.50;;;1.53;;
12556;SDS011;6344;49.932;8.308;2023-03-14T14:01:13;3.83;;;2.03;;
12556;SDS011;6344;49.932;8.308;2023-03-14T14:03:42;1.80;;;1.70;;
12556;SDS011;6344;49.932;8.308;2023-03-14T14:06:19;1.70;;;1.60;;
12556;SDS011;6344;49.932;8.308;2023-03-14T14:08:52;4.60;;;1.13;;
12556;SDS011;6344;49.932;8.308;2023-03-14T14:11:21;2.77;;;1.80;;
12556;SDS011;6344;49.932;8.308;2023-03-14T14:14:01;2.93;;;1.60;;
12556;SDS011;6344;49.932;8.308;2023-03-14T14:16:28;2.07;;;1.40;;
12556;SDS011;6344;49.932;8.308;2023-03-14T14:18:56;2.07;;;1.57;;
12556;SDS011;6344;49.932;8.308;2023-03-14T14:21:25;1.37;;;1.23;;
12556;SDS011;6344;49.932;8.308;2023-03-14T14:23:53;1.30;;;1.20;;
12556;SDS011;6344;49.932;8.308;2023-03-14T14:26:20;3.83;;;1.43;;
12556;SDS011;6344;49.932;8.308;2023-03-14T14:28:47;1.20;;;1.10;;
12556;SDS011;6344;49.932;8.308;2023-03-14T14:31:25;1.50;;;1.40;;
12556;SDS011;6344;49.932;8.308;2023-03-14T14:33:55;1.60;;;1.50;;
12556;SDS011;6344;49.932;8.308;2023-03-14T14:36:24;1.27;;;1.13;;
12556;SDS011;6344;49.932;8.308;2023-03-14T14:38:57;1.60;;;1.43;;
12556;SDS011;6344;49.932;8.308;2023-03-14T14:41:29;4.83;;;1.90;;
12556;SDS011;6344;49.932;8.308;2023-03-14T14:43:58;1.70;;;1.60;;
12556;SDS011;6344;49.932;8.308;2023-03-14T14:46:26;2.10;;;1.87;;
12556;SDS011;6344;49.932;8.308;2023-03-14T14:48:56;2.70;;;1.60;;
12556;SDS011;6344;49.932;8.308;2023-03-14T14:51:25;2.70;;;1.80;;
12556;SDS011;6344;49.932;8.308;2023-03-14T14:54:03;1.90;;;1.70;;
12556;SDS011;6344;49.932;8.308;2023-03-14T14:56:36;1.90;;;1.77;;
12556;SDS011;6344;49.932;8.308;2023-03-14T14:59:03;1.97;;;1.63;;
12556;SDS011;6344;49.932;8.308;2023-03-14T15:01:32;2.40;;;1.87;;
12556;SDS011;6344;49.932;8.308;2023-03-14T15:04:00;2.80;;;1.57;;
12556;SDS011;6344;49.932;8.308;2023-03-14T15:06:28;2.50;;;1.33;;
12556;SDS011;6344;49.932;8.308;2023-03-14T15:08:56;3.10;;;1.60;;
12556;SDS011;6344;49.932;8.308;2023-03-14T15:11:25;1.63;;;1.47;;
12556;SDS011;6344;49.932;8.308;2023-03-14T15:13:52;1.50;;;1.40;;
12556;SDS011;6344;49.932;8.308;2023-03-14T15:16:20;2.50;;;2.10;;
12556;SDS011;6344;49.932;8.308;2023-03-14T15:18:50;2.37;;;1.30;;
12556;SDS011;6344;49.932;8.308;2023-03-14T15:21:20;1.63;;;1.23;;
12556;SDS011;6344;49.932;8.308;2023-03-14T15:23:47;1.80;;;1.70;;
12556;SDS011;6344;49.932;8.308;2023-03-14T15:26:14;2.23;;;2.03;;